sensor_id;sensor_type;location;lat;lon;timestamp;P1;durP1;ratioP1;P2;durP2;ratioP2
151;SDS011;68;48.792;9.164;2023-02-11T00:02:14;54.53;;;29.27;;
151;SDS011;68;48.792;9.164;2023-02-11T00:04:41;55.20;;;29.38;;
151;SDS011;68;48.792;9.164;2023-02-11T00:07:07;58.22;;;31.05;;
151;SDS011;68;48.792;9.164;2023-02-11T00:09:34;53.97;;;29.38;;
151;SDS011;68;48.792;9.164;2023-02-11T00:12:04;58.63;;;30.00;;
151;SDS011;68;48.792;9.164;2023-02-11T00:14:31;56.03;;;30.60;;
151;SDS011;68;48.792;9.164;2023-02-11T00:16:57;60.70;;;30.40;;
151;SDS011;68;48.792;9.164;2023-02-11T00:19:24;56.28;;;30.45;;
151;SDS011;68;48.792;9.164;2023-02-11T00:21:51;56.90;;;29.85;;
151;SDS011;68;48.792;9.164;2023-02-11T00:24:17;55.47;;;29.85;;
151;SDS011;68;48.792;9.164;2023-02-11T00:26:44;55.85;;;30.20;;
151;SDS011;68;48.792;9.164;2023-02-11T00:29:12;53.30;;;30.33;;
151;SDS011;68;48.792;9.164;2023-02-11T00:31:39;57.63;;;30.58;;
151;SDS011;68;48.792;9.164;2023-02-11T00:34:06;51.70;;;29.05;;
151;SDS011;68;48.792;9.164;2023-02-11T00:36:33;61.67;;;28.20;;
151;SDS011;68;48.792;9.164;2023-02-11T00:38:59;55.63;;;30.20;;
151;SDS011;68;48.792;9.164;2023-02-11T00:41:26;53.50;;;30.38;;
151;SDS011;68;48.792;9.164;2023-02-11T00:43:53;56.30;;;30.35;;
151;SDS011;68;48.792;9.164;2023-02-11T00:46:21;53.20;;;30.23;;
151;SDS011;68;48.792;9.164;2023-02-11T00:48:48;55.78;;;30.60;;
151;SDS011;68;48.792;9.164;2023-02-11T00:51:16;58.30;;;31.45;;
151;SDS011;68;48.792;9.164;2023-02-11T00:53:42;65.22;;;33.25;;
151;SDS011;68;48.792;9.164;2023-02-11T00:56:09;54.15;;;31.73;;
151;SDS011;68;48.792;9.164;2023-02-11T00:58:36;61.72;;;31.05;;
151;SDS011;68;48.792;9.164;2023-02-11T01:01:03;54.80;;;31.13;;
151;SDS011;68;48.792;9.164;2023-02-11T01:03:32;61.20;;;31.50;;
151;SDS011;68;48.792;9.164;2023-02-11T01:05:59;56.20;;;30.08;;
151;SDS011;68;48.792;9.164;2023-02-11T01:08:26;60.35;;;32.58;;
151;SDS011;68;48.792;9.164;2023-02-11T01:10:54;59.38;;;30.50;;
151;SDS011;68;48.792;9.164;2023-02-11T01:13:22;52.63;;;29.25;;
151;SDS011;68;48.792;9.164;2023-02-11T01:15:49;54.08;;;30.15;;
151;SDS011;68;48.792;9.164;2023-02-11T01:18:15;61.08;;;32.13;;
151;SDS011;68;48.792;9.164;2023-02-11T01:20:43;62.92;;;31.85;;
151;SDS011;68;48.792;9.164;2023-02-11T01:23:10;55.85;;;31.38;;
151;SDS011;68;48.792;9.164;2023-02-11T01:25:37;61.25;;;32.33;;
151;SDS011;68;48.792;9.164;2023-02-11T01:28:04;64.47;;;31.55;;
151;SDS011;68;48.792;9.164;2023-02-11T01:30:31;59.05;;;32.22;;
151;SDS011;68;48.792;9.164;2023-02-11T01:32:59;56.88;;;31.30;;
151;SDS011;68;48.792;9.164;2023-02-11T01:35:26;61.63;;;32.95;;
151;SDS011;68;48.792;9.164;2023-02-11T01:37:54;67.13;;;33.08;;
151;SDS011;68;48.792;9.164;2023-02-11T01:40:20;60.90;;;33.00;;
151;SDS011;68;48.792;9.164;2023-02-11T01:42:47;58.72;;;31.27;;
151;SDS011;68;48.792;9.164;2023-02-11T01:48:31;57.50;;;30.15;;
151;SDS011;68;48.792;9.164;2023-02-11T01:51:03;52.70;;;28.83;;
151;SDS011;68;48.792;9.164;2023-02-11T01:53:35;57.85;;;29.40;;
151;SDS011;68;48.792;9.164;2023-02-11T01:56:20;49.60;;;28.20;;
151;SDS011;68;48.792;9.164;2023-02-11T01:59:10;49.72;;;27.88;;
151;SDS011;68;48.792;9.164;2023-02-11T02:01:40;58.08;;;29.35;;
151;SDS011;68;48.792;9.164;2023-02-11T02:04:11;49.67;;;29.00;;
151;SDS011;68;48.792;9.164;2023-02-11T02:06:45;59.20;;;31.25;;
151;SDS011;68;48.792;9.164;2023-02-11T02:09:19;58.03;;;29.60;;
151;SDS011;68;48.792;9.164;2023-02-11T02:11:50;59.53;;;29.45;;
151;SDS011;68;48.792;9.164;2023-02-11T02:14:17;58.70;;;30.02;;
151;SDS011;68;48.792;9.164;2023-02-11T02:16:44;61.65;;;30.83;;
151;SDS011;68;48.792;9.164;2023-02-11T02:25:29;56.40;;;29.73;;
151;SDS011;68;48.792;9.164;2023-02-11T02:28:28;57.13;;;30.33;;
151;SDS011;68;48.792;9.164;2023-02-11T02:34:08;55.65;;;29.55;;
151;SDS011;68;48.792;9.164;2023-02-11T02:36:46;55.30;;;30.75;;
151;SDS011;68;48.792;9.164;2023-02-11T02:39:21;57.42;;;30.70;;
151;SDS011;68;48.792;9.164;2023-02-11T02:41:51;55.15;;;29.42;;
151;SDS011;68;48.792;9.164;2023-02-11T02:44:20;56.25;;;31.13;;
151;SDS011;68;48.792;9.164;2023-02-11T02:46:46;59.38;;;30.75;;
151;SDS011;68;48.792;9.164;2023-02-11T02:49:15;63.80;;;32.10;;
151;SDS011;68;48.792;9.164;2023-02-11T02:57:34;59.30;;;31.73;;
151;SDS011;68;48.792;9.164;2023-02-11T03:00:13;65.50;;;33.55;;
151;SDS011;68;48.792;9.164;2023-02-11T03:02:57;57.50;;;31.65;;
151;SDS011;68;48.792;9.164;2023-02-11T03:05:37;56.20;;;30.98;;
151;SDS011;68;48.792;9.164;2023-02-11T03:08:15;51.70;;;29.00;;
151;SDS011;68;48.792;9.164;2023-02-11T03:10:48;55.55;;;29.80;;
151;SDS011;68;48.792;9.164;2023-02-11T03:13:17;55.83;;;30.38;;
151;SDS011;68;48.792;9.164;2023-02-11T03:15:48;61.35;;;31.75;;
151;SDS011;68;48.792;9.164;2023-02-11T03:18:19;61.88;;;31.20;;
151;SDS011;68;48.792;9.164;2023-02-11T03:20:52;66.45;;;32.47;;
151;SDS011;68;48.792;9.164;2023-02-11T03:23:22;54.88;;;30.27;;
151;SDS011;68;48.792;9.164;2023-02-11T03:25:55;58.22;;;31.60;;
151;SDS011;68;48.792;9.164;2023-02-11T03:28:27;58.03;;;32.55;;
151;SDS011;68;48.792;9.164;2023-02-11T03:31:00;53.72;;;30.30;;
151;SDS011;68;48.792;9.164;2023-02-11T03:33:36;59.25;;;31.23;;
151;SDS011;68;48.792;9.164;2023-02-11T03:36:08;55.20;;;29.27;;
151;SDS011;68;48.792;9.164;2023-02-11T03:38:41;55.40;;;29.90;;
151;SDS011;68;48.792;9.164;2023-02-11T03:41:12;51.15;;;28.10;;
151;SDS011;68;48.792;9.164;2023-02-11T03:43:43;52.65;;;28.42;;
151;SDS011;68;48.792;9.164;2023-02-11T03:46:13;56.45;;;30.02;;
151;SDS011;68;48.792;9.164;2023-02-11T03:48:45;52.88;;;28.17;;
151;SDS011;68;48.792;9.164;2023-02-11T03:51:18;53.88;;;28.17;;
151;SDS011;68;48.792;9.164;2023-02-11T03:53:47;52.65;;;29.10;;
151;SDS011;68;48.792;9.164;2023-02-11T03:56:16;50.25;;;28.58;;
151;SDS011;68;48.792;9.164;2023-02-11T03:58:46;48.58;;;27.38;;
151;SDS011;68;48.792;9.164;2023-02-11T04:01:13;48.90;;;27.17;;
151;SDS011;68;48.792;9.164;2023-02-11T04:03:40;48.20;;;26.25;;
151;SDS011;68;48.792;9.164;2023-02-11T04:06:07;46.33;;;25.40;;
151;SDS011;68;48.792;9.164;2023-02-11T04:08:35;45.00;;;26.00;;
151;SDS011;68;48.792;9.164;2023-02-11T04:11:02;48.92;;;27.35;;
151;SDS011;68;48.792;9.164;2023-02-11T04:13:29;49.03;;;26.15;;
151;SDS011;68;48.792;9.164;2023-02-11T04:15:55;46.28;;;25.70;;
151;SDS011;68;48.792;9.164;2023-02-11T04:18:22;46.67;;;26.42;;
151;SDS011;68;48.792;9.164;2023-02-11T04:20:49;48.33;;;26.17;;
151;SDS011;68;48.792;9.164;2023-02-11T04:23:16;47.42;;;26.88;;
151;SDS011;68;48.792;9.164;2023-02-11T04:25:44;50.10;;;27.92;;
151;SDS011;68;48.792;9.164;2023-02-11T04:28:11;51.03;;;27.00;;
151;SDS011;68;48.792;9.164;2023-02-11T04:30:37;50.05;;;27.52;;
151;SDS011;68;48.792;9.164;2023-02-11T04:33:04;54.13;;;29.67;;
151;SDS011;68;48.792;9.164;2023-02-11T04:35:31;49.50;;;27.38;;
151;SDS011;68;48.792;9.164;2023-02-11T04:37:58;49.85;;;28.00;;
151;SDS011;68;48.792;9.164;2023-02-11T04:40:24;55.53;;;29.70;;
151;SDS011;68;48.792;9.164;2023-02-11T04:42:53;52.67;;;29.75;;
151;SDS011;68;48.792;9.164;2023-02-11T04:45:19;53.92;;;28.17;;
151;SDS011;68;48.792;9.164;2023-02-11T04:47:46;52.55;;;29.73;;
151;SDS011;68;48.792;9.164;2023-02-11T04:50:13;55.80;;;29.85;;
151;SDS011;68;48.792;9.164;2023-02-11T04:52:39;53.63;;;28.65;;
151;SDS011;68;48.792;9.164;2023-02-11T04:55:06;51.55;;;29.02;;
151;SDS011;68;48.792;9.164;2023-02-11T04:57:33;50.38;;;27.92;;
151;SDS011;68;48.792;9.164;2023-02-11T05:00:01;52.33;;;29.60;;
151;SDS011;68;48.792;9.164;2023-02-11T05:02:28;54.38;;;28.95;;
151;SDS011;68;48.792;9.164;2023-02-11T05:04:55;50.55;;;28.20;;
151;SDS011;68;48.792;9.164;2023-02-11T05:07:22;50.97;;;28.63;;
151;SDS011;68;48.792;9.164;2023-02-11T05:09:48;47.83;;;28.08;;
151;SDS011;68;48.792;9.164;2023-02-11T05:12:15;51.40;;;28.90;;
151;SDS011;68;48.792;9.164;2023-02-11T05:14:42;48.00;;;27.38;;
151;SDS011;68;48.792;9.164;2023-02-11T05:17:10;46.00;;;27.10;;
151;SDS011;68;48.792;9.164;2023-02-11T05:19:37;51.78;;;28.08;;
151;SDS011;68;48.792;9.164;2023-02-11T05:22:03;54.42;;;27.27;;
151;SDS011;68;48.792;9.164;2023-02-11T05:24:30;48.40;;;27.88;;
151;SDS011;68;48.792;9.164;2023-02-11T05:26:58;49.05;;;28.20;;
151;SDS011;68;48.792;9.164;2023-02-11T05:29:25;48.22;;;28.70;;
151;SDS011;68;48.792;9.164;2023-02-11T05:31:51;44.83;;;26.40;;
151;SDS011;68;48.792;9.164;2023-02-11T05:34:20;55.75;;;29.15;;
151;SDS011;68;48.792;9.164;2023-02-11T05:36:47;52.83;;;28.30;;
151;SDS011;68;48.792;9.164;2023-02-11T05:39:13;49.83;;;27.92;;
151;SDS011;68;48.792;9.164;2023-02-11T05:41:40;45.97;;;26.83;;
151;SDS011;68;48.792;9.164;2023-02-11T05:44:07;49.80;;;28.45;;
151;SDS011;68;48.792;9.164;2023-02-11T05:46:34;47.13;;;27.55;;
151;SDS011;68;48.792;9.164;2023-02-11T05:49:01;47.88;;;27.23;;
151;SDS011;68;48.792;9.164;2023-02-11T05:51:29;53.33;;;27.52;;
151;SDS011;68;48.792;9.164;2023-02-11T05:53:56;50.10;;;26.85;;
151;SDS011;68;48.792;9.164;2023-02-11T05:56:22;44.58;;;26.80;;
151;SDS011;68;48.792;9.164;2023-02-11T05:58:49;43.75;;;26.48;;
151;SDS011;68;48.792;9.164;2023-02-11T06:01:16;49.45;;;27.83;;
151;SDS011;68;48.792;9.164;2023-02-11T06:03:43;43.83;;;25.45;;
151;SDS011;68;48.792;9.164;2023-02-11T06:06:09;42.72;;;26.05;;
151;SDS011;68;48.792;9.164;2023-02-11T06:08:38;43.70;;;25.85;;
151;SDS011;68;48.792;9.164;2023-02-11T06:11:05;45.75;;;25.55;;
151;SDS011;68;48.792;9.164;2023-02-11T06:13:32;43.75;;;25.95;;
151;SDS011;68;48.792;9.164;2023-02-11T06:15:59;47.45;;;27.10;;
151;SDS011;68;48.792;9.164;2023-02-11T06:18:27;49.60;;;27.38;;
151;SDS011;68;48.792;9.164;2023-02-11T06:20:54;47.67;;;27.95;;
151;SDS011;68;48.792;9.164;2023-02-11T06:23:21;42.88;;;25.27;;
151;SDS011;68;48.792;9.164;2023-02-11T06:25:49;45.08;;;27.25;;
151;SDS011;68;48.792;9.164;2023-02-11T06:28:16;41.38;;;26.13;;
151;SDS011;68;48.792;9.164;2023-02-11T06:30:43;48.45;;;27.17;;
151;SDS011;68;48.792;9.164;2023-02-11T06:33:10;44.05;;;25.70;;
151;SDS011;68;48.792;9.164;2023-02-11T06:35:37;49.38;;;26.42;;
151;SDS011;68;48.792;9.164;2023-02-11T06:38:04;49.92;;;26.23;;
151;SDS011;68;48.792;9.164;2023-02-11T06:40:31;49.20;;;27.42;;
151;SDS011;68;48.792;9.164;2023-02-11T06:42:59;47.05;;;27.20;;
151;SDS011;68;48.792;9.164;2023-02-11T06:45:26;39.78;;;24.85;;
151;SDS011;68;48.792;9.164;2023-02-11T06:47:52;40.35;;;25.00;;
151;SDS011;68;48.792;9.164;2023-02-11T06:50:19;40.97;;;25.45;;
151;SDS011;68;48.792;9.164;2023-02-11T06:52:46;44.13;;;26.63;;
151;SDS011;68;48.792;9.164;2023-02-11T06:55:13;50.10;;;27.02;;
151;SDS011;68;48.792;9.164;2023-02-11T06:57:40;47.88;;;27.75;;
151;SDS011;68;48.792;9.164;2023-02-11T07:00:09;42.83;;;25.98;;
151;SDS011;68;48.792;9.164;2023-02-11T07:02:36;46.30;;;26.42;;
151;SDS011;68;48.792;9.164;2023-02-11T07:05:03;45.20;;;26.17;;
151;SDS011;68;48.792;9.164;2023-02-11T07:07:31;46.33;;;26.60;;
151;SDS011;68;48.792;9.164;2023-02-11T07:09:57;48.67;;;27.25;;
151;SDS011;68;48.792;9.164;2023-02-11T07:12:24;44.83;;;26.35;;
151;SDS011;68;48.792;9.164;2023-02-11T07:14:51;41.83;;;25.20;;
151;SDS011;68;48.792;9.164;2023-02-11T07:17:19;44.47;;;27.40;;
151;SDS011;68;48.792;9.164;2023-02-11T07:19:47;48.40;;;26.38;;
151;SDS011;68;48.792;9.164;2023-02-11T07:22:14;45.20;;;27.33;;
151;SDS011;68;48.792;9.164;2023-02-11T07:24:40;48.45;;;27.05;;
151;SDS011;68;48.792;9.164;2023-02-11T07:27:07;47.00;;;26.67;;
151;SDS011;68;48.792;9.164;2023-02-11T07:29:34;44.55;;;27.25;;
151;SDS011;68;48.792;9.164;2023-02-11T07:32:01;44.10;;;26.35;;
151;SDS011;68;48.792;9.164;2023-02-11T07:34:29;46.50;;;26.35;;
151;SDS011;68;48.792;9.164;2023-02-11T07:36:56;41.97;;;25.70;;
151;SDS011;68;48.792;9.164;2023-02-11T07:39:22;45.45;;;26.58;;
151;SDS011;68;48.792;9.164;2023-02-11T07:41:51;45.53;;;26.55;;
151;SDS011;68;48.792;9.164;2023-02-11T07:44:18;52.92;;;26.98;;
151;SDS011;68;48.792;9.164;2023-02-11T07:46:45;47.67;;;26.80;;
151;SDS011;68;48.792;9.164;2023-02-11T07:49:13;39.55;;;24.92;;
151;SDS011;68;48.792;9.164;2023-02-11T07:51:41;43.47;;;25.45;;
151;SDS011;68;48.792;9.164;2023-02-11T07:54:08;47.28;;;26.52;;
151;SDS011;68;48.792;9.164;2023-02-11T07:56:36;43.63;;;26.25;;
151;SDS011;68;48.792;9.164;2023-02-11T07:59:03;44.13;;;26.15;;
151;SDS011;68;48.792;9.164;2023-02-11T08:01:29;43.50;;;25.15;;
151;SDS011;68;48.792;9.164;2023-02-11T08:03:57;43.00;;;25.85;;
151;SDS011;68;48.792;9.164;2023-02-11T08:06:26;42.42;;;26.73;;
151;SDS011;68;48.792;9.164;2023-02-11T08:08:55;44.25;;;26.27;;
151;SDS011;68;48.792;9.164;2023-02-11T08:11:23;45.92;;;26.77;;
151;SDS011;68;48.792;9.164;2023-02-11T08:13:51;45.15;;;26.63;;
151;SDS011;68;48.792;9.164;2023-02-11T08:16:19;45.22;;;25.75;;
151;SDS011;68;48.792;9.164;2023-02-11T08:18:48;45.25;;;25.65;;
151;SDS011;68;48.792;9.164;2023-02-11T08:21:16;45.88;;;26.77;;
151;SDS011;68;48.792;9.164;2023-02-11T08:23:44;42.17;;;25.42;;
151;SDS011;68;48.792;9.164;2023-02-11T08:26:13;39.78;;;25.70;;
151;SDS011;68;48.792;9.164;2023-02-11T08:28:42;42.60;;;24.48;;
151;SDS011;68;48.792;9.164;2023-02-11T08:31:10;36.35;;;22.85;;
151;SDS011;68;48.792;9.164;2023-02-11T08:33:39;36.30;;;22.80;;
151;SDS011;68;48.792;9.164;2023-02-11T08:36:09;38.35;;;23.27;;
151;SDS011;68;48.792;9.164;2023-02-11T08:38:36;41.67;;;23.20;;
151;SDS011;68;48.792;9.164;2023-02-11T08:41:03;39.70;;;23.98;;
151;SDS011;68;48.792;9.164;2023-02-11T08:43:32;38.85;;;22.95;;
151;SDS011;68;48.792;9.164;2023-02-11T08:45:59;44.42;;;25.67;;
151;SDS011;68;48.792;9.164;2023-02-11T08:48:26;47.10;;;27.83;;
151;SDS011;68;48.792;9.164;2023-02-11T08:50:53;47.03;;;27.30;;
151;SDS011;68;48.792;9.164;2023-02-11T08:53:20;46.10;;;27.08;;
151;SDS011;68;48.792;9.164;2023-02-11T08:55:47;51.67;;;28.00;;
151;SDS011;68;48.792;9.164;2023-02-11T08:58:14;50.17;;;26.85;;
151;SDS011;68;48.792;9.164;2023-02-11T09:00:42;43.80;;;27.23;;
151;SDS011;68;48.792;9.164;2023-02-11T09:03:09;39.10;;;24.60;;
151;SDS011;68;48.792;9.164;2023-02-11T09:05:39;41.20;;;24.35;;
151;SDS011;68;48.792;9.164;2023-02-11T09:08:06;37.90;;;22.98;;
151;SDS011;68;48.792;9.164;2023-02-11T09:10:33;35.67;;;21.95;;
151;SDS011;68;48.792;9.164;2023-02-11T09:13:00;37.67;;;23.63;;
151;SDS011;68;48.792;9.164;2023-02-11T09:15:27;37.65;;;22.55;;
151;SDS011;68;48.792;9.164;2023-02-11T09:17:55;34.28;;;20.45;;
151;SDS011;68;48.792;9.164;2023-02-11T09:20:23;32.25;;;20.17;;
151;SDS011;68;48.792;9.164;2023-02-11T09:22:51;34.15;;;20.77;;
151;SDS011;68;48.792;9.164;2023-02-11T09:25:18;33.20;;;20.13;;
151;SDS011;68;48.792;9.164;2023-02-11T09:27:45;31.20;;;20.30;;
151;SDS011;68;48.792;9.164;2023-02-11T09:30:12;29.92;;;19.90;;
151;SDS011;68;48.792;9.164;2023-02-11T09:32:39;32.17;;;19.30;;
151;SDS011;68;48.792;9.164;2023-02-11T09:35:07;45.35;;;28.00;;
151;SDS011;68;48.792;9.164;2023-02-11T09:37:34;42.65;;;26.88;;
151;SDS011;68;48.792;9.164;2023-02-11T09:40:00;36.97;;;23.80;;
151;SDS011;68;48.792;9.164;2023-02-11T09:42:35;38.58;;;22.90;;
151;SDS011;68;48.792;9.164;2023-02-11T09:45:16;35.63;;;22.80;;
151;SDS011;68;48.792;9.164;2023-02-11T09:47:46;34.65;;;21.52;;
151;SDS011;68;48.792;9.164;2023-02-11T09:50:18;39.47;;;21.50;;
151;SDS011;68;48.792;9.164;2023-02-11T09:52:50;30.80;;;19.52;;
151;SDS011;68;48.792;9.164;2023-02-11T09:55:24;32.63;;;20.58;;
151;SDS011;68;48.792;9.164;2023-02-11T09:57:54;32.58;;;20.17;;
151;SDS011;68;48.792;9.164;2023-02-11T10:00:23;35.28;;;20.02;;
151;SDS011;68;48.792;9.164;2023-02-11T10:02:58;30.98;;;17.92;;
151;SDS011;68;48.792;9.164;2023-02-11T10:05:35;29.73;;;19.60;;
151;SDS011;68;48.792;9.164;2023-02-11T10:08:15;28.17;;;18.60;;
151;SDS011;68;48.792;9.164;2023-02-11T10:10:49;30.17;;;18.05;;
151;SDS011;68;48.792;9.164;2023-02-11T10:13:23;29.70;;;18.85;;
151;SDS011;68;48.792;9.164;2023-02-11T10:16:00;30.20;;;18.98;;
151;SDS011;68;48.792;9.164;2023-02-11T10:18:45;28.77;;;18.35;;
151;SDS011;68;48.792;9.164;2023-02-11T10:21:27;29.30;;;18.42;;
151;SDS011;68;48.792;9.164;2023-02-11T10:23:58;29.67;;;18.10;;
151;SDS011;68;48.792;9.164;2023-02-11T10:26:28;32.05;;;19.70;;
151;SDS011;68;48.792;9.164;2023-02-11T10:28:58;47.45;;;27.55;;
151;SDS011;68;48.792;9.164;2023-02-11T10:31:32;41.15;;;23.65;;
151;SDS011;68;48.792;9.164;2023-02-11T10:34:04;36.28;;;21.95;;
151;SDS011;68;48.792;9.164;2023-02-11T10:36:34;36.13;;;22.70;;
151;SDS011;68;48.792;9.164;2023-02-11T10:39:09;37.80;;;22.40;;
151;SDS011;68;48.792;9.164;2023-02-11T10:41:39;33.33;;;21.02;;
151;SDS011;68;48.792;9.164;2023-02-11T10:44:10;44.20;;;24.92;;
151;SDS011;68;48.792;9.164;2023-02-11T10:46:49;37.10;;;22.42;;
151;SDS011;68;48.792;9.164;2023-02-11T10:49:33;37.83;;;22.88;;
151;SDS011;68;48.792;9.164;2023-02-11T10:52:14;43.55;;;22.85;;
151;SDS011;68;48.792;9.164;2023-02-11T10:55:00;37.97;;;24.20;;
151;SDS011;68;48.792;9.164;2023-02-11T10:57:31;37.90;;;21.27;;
151;SDS011;68;48.792;9.164;2023-02-11T11:00:02;36.42;;;23.45;;
151;SDS011;68;48.792;9.164;2023-02-11T11:02:33;40.13;;;24.85;;
151;SDS011;68;48.792;9.164;2023-02-11T11:05:03;40.45;;;19.55;;
151;SDS011;68;48.792;9.164;2023-02-11T11:07:41;40.33;;;23.25;;
151;SDS011;68;48.792;9.164;2023-02-11T11:10:24;46.25;;;25.17;;
151;SDS011;68;48.792;9.164;2023-02-11T11:12:53;39.40;;;24.55;;
151;SDS011;68;48.792;9.164;2023-02-11T11:15:21;37.47;;;24.13;;
151;SDS011;68;48.792;9.164;2023-02-11T11:18:06;38.47;;;23.50;;
151;SDS011;68;48.792;9.164;2023-02-11T11:20:36;34.13;;;22.58;;
151;SDS011;68;48.792;9.164;2023-02-11T11:23:08;42.88;;;23.83;;
151;SDS011;68;48.792;9.164;2023-02-11T11:25:41;33.90;;;21.70;;
151;SDS011;68;48.792;9.164;2023-02-11T11:28:17;34.63;;;21.25;;
151;SDS011;68;48.792;9.164;2023-02-11T11:30:47;30.48;;;19.23;;
151;SDS011;68;48.792;9.164;2023-02-11T11:33:17;37.28;;;18.83;;
151;SDS011;68;48.792;9.164;2023-02-11T11:35:53;26.90;;;17.67;;
151;SDS011;68;48.792;9.164;2023-02-11T11:38:25;36.92;;;20.63;;
151;SDS011;68;48.792;9.164;2023-02-11T11:41:12;28.83;;;19.25;;
151;SDS011;68;48.792;9.164;2023-02-11T11:43:56;27.33;;;17.35;;
151;SDS011;68;48.792;9.164;2023-02-11T11:46:26;26.83;;;17.17;;
151;SDS011;68;48.792;9.164;2023-02-11T11:48:57;28.63;;;17.58;;
151;SDS011;68;48.792;9.164;2023-02-11T11:51:37;24.77;;;16.67;;
151;SDS011;68;48.792;9.164;2023-02-11T11:54:10;24.45;;;16.23;;
151;SDS011;68;48.792;9.164;2023-02-11T11:56:40;25.17;;;16.33;;
151;SDS011;68;48.792;9.164;2023-02-11T11:59:12;28.80;;;17.50;;
151;SDS011;68;48.792;9.164;2023-02-11T12:01:43;24.05;;;16.30;;
151;SDS011;68;48.792;9.164;2023-02-11T12:07:30;27.52;;;15.80;;
151;SDS011;68;48.792;9.164;2023-02-11T12:13:21;17.50;;;9.45;;
151;SDS011;68;48.792;9.164;2023-02-11T12:15:58;13.73;;;9.50;;
151;SDS011;68;48.792;9.164;2023-02-11T12:18:37;15.23;;;9.25;;
151;SDS011;68;48.792;9.164;2023-02-11T12:21:19;14.40;;;9.55;;
151;SDS011;68;48.792;9.164;2023-02-11T12:23:57;13.70;;;9.35;;
151;SDS011;68;48.792;9.164;2023-02-11T12:26:34;15.25;;;9.15;;
151;SDS011;68;48.792;9.164;2023-02-11T12:29:12;12.15;;;8.50;;
151;SDS011;68;48.792;9.164;2023-02-11T12:31:57;18.17;;;9.75;;
151;SDS011;68;48.792;9.164;2023-02-11T12:34:38;17.50;;;8.98;;
151;SDS011;68;48.792;9.164;2023-02-11T12:37:25;13.90;;;10.15;;
151;SDS011;68;48.792;9.164;2023-02-11T12:40:02;19.23;;;9.88;;
151;SDS011;68;48.792;9.164;2023-02-11T12:42:49;14.65;;;10.15;;
151;SDS011;68;48.792;9.164;2023-02-11T12:51:39;15.18;;;9.65;;
151;SDS011;68;48.792;9.164;2023-02-11T12:54:23;17.15;;;10.07;;
151;SDS011;68;48.792;9.164;2023-02-11T12:56:56;16.05;;;9.70;;
151;SDS011;68;48.792;9.164;2023-02-11T12:59:31;16.02;;;10.18;;
151;SDS011;68;48.792;9.164;2023-02-11T13:02:14;16.90;;;10.02;;
151;SDS011;68;48.792;9.164;2023-02-11T13:04:48;16.08;;;10.80;;
151;SDS011;68;48.792;9.164;2023-02-11T13:07:21;14.20;;;9.45;;
151;SDS011;68;48.792;9.164;2023-02-11T13:09:51;13.98;;;9.07;;
151;SDS011;68;48.792;9.164;2023-02-11T13:12:22;15.02;;;10.20;;
151;SDS011;68;48.792;9.164;2023-02-11T13:15:09;22.33;;;10.88;;
151;SDS011;68;48.792;9.164;2023-02-11T13:17:43;15.30;;;10.40;;
151;SDS011;68;48.792;9.164;2023-02-11T13:20:19;23.45;;;10.23;;
151;SDS011;68;48.792;9.164;2023-02-11T13:22:55;18.42;;;10.25;;
151;SDS011;68;48.792;9.164;2023-02-11T13:25:28;16.80;;;10.52;;
151;SDS011;68;48.792;9.164;2023-02-11T13:28:02;19.42;;;11.15;;
151;SDS011;68;48.792;9.164;2023-02-11T13:30:37;19.10;;;12.02;;
151;SDS011;68;48.792;9.164;2023-02-11T13:33:29;26.88;;;15.38;;
151;SDS011;68;48.792;9.164;2023-02-11T13:38:56;27.00;;;15.75;;
151;SDS011;68;48.792;9.164;2023-02-11T13:41:27;34.05;;;17.67;;
151;SDS011;68;48.792;9.164;2023-02-11T13:43:57;30.73;;;18.00;;
151;SDS011;68;48.792;9.164;2023-02-11T13:46:29;33.83;;;18.55;;
151;SDS011;68;48.792;9.164;2023-02-11T13:49:19;30.25;;;17.30;;
151;SDS011;68;48.792;9.164;2023-02-11T13:51:49;28.38;;;17.45;;
151;SDS011;68;48.792;9.164;2023-02-11T13:54:27;32.25;;;17.80;;
151;SDS011;68;48.792;9.164;2023-02-11T14:00:41;34.28;;;18.45;;
151;SDS011;68;48.792;9.164;2023-02-11T14:06:23;32.15;;;18.00;;
151;SDS011;68;48.792;9.164;2023-02-11T14:12:19;32.22;;;18.08;;
151;SDS011;68;48.792;9.164;2023-02-11T14:15:00;29.63;;;17.88;;
151;SDS011;68;48.792;9.164;2023-02-11T14:17:42;32.65;;;17.58;;
151;SDS011;68;48.792;9.164;2023-02-11T14:23:05;36.80;;;19.77;;
151;SDS011;68;48.792;9.164;2023-02-11T14:25:32;32.67;;;18.88;;
151;SDS011;68;48.792;9.164;2023-02-11T14:28:00;32.85;;;18.20;;
151;SDS011;68;48.792;9.164;2023-02-11T14:30:44;30.40;;;18.50;;
151;SDS011;68;48.792;9.164;2023-02-11T14:33:33;28.85;;;16.75;;
151;SDS011;68;48.792;9.164;2023-02-11T14:36:38;35.60;;;16.45;;
151;SDS011;68;48.792;9.164;2023-02-11T14:39:16;26.00;;;16.35;;
151;SDS011;68;48.792;9.164;2023-02-11T14:41:51;30.70;;;16.38;;
151;SDS011;68;48.792;9.164;2023-02-11T14:44:19;26.45;;;16.15;;
151;SDS011;68;48.792;9.164;2023-02-11T14:46:48;25.05;;;15.30;;
151;SDS011;68;48.792;9.164;2023-02-11T14:49:19;25.75;;;15.45;;
151;SDS011;68;48.792;9.164;2023-02-11T14:51:51;22.60;;;14.30;;
151;SDS011;68;48.792;9.164;2023-02-11T14:54:22;26.23;;;15.45;;
151;SDS011;68;48.792;9.164;2023-02-11T14:57:04;22.30;;;13.93;;
151;SDS011;68;48.792;9.164;2023-02-11T14:59:32;28.77;;;16.50;;
151;SDS011;68;48.792;9.164;2023-02-11T15:01:59;29.50;;;15.20;;
151;SDS011;68;48.792;9.164;2023-02-11T15:04:27;23.05;;;15.13;;
151;SDS011;68;48.792;9.164;2023-02-11T15:06:55;24.38;;;14.50;;
151;SDS011;68;48.792;9.164;2023-02-11T15:09:26;25.10;;;16.38;;
151;SDS011;68;48.792;9.164;2023-02-11T15:11:58;27.02;;;17.92;;
151;SDS011;68;48.792;9.164;2023-02-11T15:14:25;28.65;;;17.83;;
151;SDS011;68;48.792;9.164;2023-02-11T15:16:53;28.13;;;18.50;;
151;SDS011;68;48.792;9.164;2023-02-11T15:19:23;27.63;;;17.75;;
151;SDS011;68;48.792;9.164;2023-02-11T15:21:54;33.35;;;18.92;;
151;SDS011;68;48.792;9.164;2023-02-11T15:24:23;30.73;;;18.95;;
151;SDS011;68;48.792;9.164;2023-02-11T15:26:59;27.73;;;18.17;;
151;SDS011;68;48.792;9.164;2023-02-11T15:29:32;36.53;;;18.70;;
151;SDS011;68;48.792;9.164;2023-02-11T15:32:02;32.10;;;19.50;;
151;SDS011;68;48.792;9.164;2023-02-11T15:34:31;31.15;;;19.60;;
151;SDS011;68;48.792;9.164;2023-02-11T15:36:58;32.78;;;19.83;;
151;SDS011;68;48.792;9.164;2023-02-11T15:39:30;32.03;;;18.95;;
151;SDS011;68;48.792;9.164;2023-02-11T15:42:14;36.08;;;19.73;;
151;SDS011;68;48.792;9.164;2023-02-11T15:44:42;31.60;;;19.00;;
151;SDS011;68;48.792;9.164;2023-02-11T15:47:09;33.40;;;19.90;;
151;SDS011;68;48.792;9.164;2023-02-11T15:49:36;28.85;;;19.05;;
151;SDS011;68;48.792;9.164;2023-02-11T15:52:08;32.92;;;20.00;;
151;SDS011;68;48.792;9.164;2023-02-11T15:54:37;33.63;;;20.13;;
151;SDS011;68;48.792;9.164;2023-02-11T15:57:06;29.58;;;18.92;;
151;SDS011;68;48.792;9.164;2023-02-11T15:59:35;34.63;;;20.08;;
151;SDS011;68;48.792;9.164;2023-02-11T16:02:06;35.30;;;20.35;;
151;SDS011;68;48.792;9.164;2023-02-11T16:04:34;33.58;;;20.88;;
151;SDS011;68;48.792;9.164;2023-02-11T16:07:02;33.70;;;20.48;;
151;SDS011;68;48.792;9.164;2023-02-11T16:09:30;36.15;;;20.10;;
151;SDS011;68;48.792;9.164;2023-02-11T16:12:00;30.55;;;18.98;;
151;SDS011;68;48.792;9.164;2023-02-11T16:14:32;38.92;;;21.25;;
151;SDS011;68;48.792;9.164;2023-02-11T16:17:03;30.85;;;20.13;;
151;SDS011;68;48.792;9.164;2023-02-11T16:19:32;35.95;;;21.40;;
151;SDS011;68;48.792;9.164;2023-02-11T16:22:04;33.05;;;21.02;;
151;SDS011;68;48.792;9.164;2023-02-11T16:24:34;33.88;;;21.90;;
151;SDS011;68;48.792;9.164;2023-02-11T16:27:04;34.53;;;20.83;;
151;SDS011;68;48.792;9.164;2023-02-11T16:29:34;32.45;;;21.30;;
151;SDS011;68;48.792;9.164;2023-02-11T16:32:06;33.38;;;20.63;;
151;SDS011;68;48.792;9.164;2023-02-11T16:34:35;34.45;;;21.52;;
151;SDS011;68;48.792;9.164;2023-02-11T16:37:02;34.60;;;21.65;;
151;SDS011;68;48.792;9.164;2023-02-11T16:39:30;37.35;;;21.63;;